sensor_id;sensor_type;location;lat;lon;timestamp;pressure;altitude;pressure_sealevel;temperature;humidity
61109;BME280;46995;55.740;37.402;2023-04-15T00:00:32;100621.84;;;2.45;29.85
61109;BME280;46995;55.740;37.402;2023-04-15T00:02:58;100620.19;;;2.43;29.92
61109;BME280;46995;55.740;37.402;2023-04-15T00:05:24;100618.47;;;2.42;29.75
61109;BME280;46995;55.740;37.402;2023-04-15T00:07:50;100635.09;;;2.39;30.04
61109;BME280;46995;55.740;37.402;2023-04-15T00:10:15;100637.75;;;2.38;30.03
61109;BME280;46995;55.740;37.402;2023-04-15T00:12:41;100631.78;;;2.34;29.90
61109;BME280;46995;55.740;37.402;2023-04-15T00:15:07;100635.31;;;2.33;30.05
61109;BME280;46995;55.740;37.402;2023-04-15T00:17:33;100639.78;;;2.30;29.98
61109;BME280;46995;55.740;37.402;2023-04-15T00:19:59;100645.03;;;2.28;30.00
61109;BME280;46995;55.740;37.402;2023-04-15T00:22:28;100639.00;;;2.26;29.97
61109;BME280;46995;55.740;37.402;2023-04-15T00:24:53;100639.88;;;2.27;30.08
61109;BME280;46995;55.740;37.402;2023-04-15T00:27:20;100653.00;;;2.24;30.41
61109;BME280;46995;55.740;37.402;2023-04-15T00:29:45;100644.44;;;2.20;30.05
61109;BME280;46995;55.740;37.402;2023-04-15T00:32:11;100646.25;;;2.18;30.34
61109;BME280;46995;55.740;37.402;2023-04-15T00:34:39;100654.16;;;2.15;30.10
61109;BME280;46995;55.740;37.402;2023-04-15T00:37:06;100652.47;;;2.14;30.10
61109;BME280;46995;55.740;37.402;2023-04-15T00:39:31;100665.50;;;2.14;30.33
61109;BME280;46995;55.740;37.402;2023-04-15T00:41:57;100655.13;;;2.12;30.54
61109;BME280;46995;55.740;37.402;2023-04-15T00:47:35;100676.97;;;2.08;30.35
61109;BME280;46995;55.740;37.402;2023-04-15T00:50:22;100667.50;;;2.06;30.50
61109;BME280;46995;55.740;37.402;2023-04-15T00:52:47;100680.63;;;2.03;30.21
61109;BME280;46995;55.740;37.402;2023-04-15T00:55:14;100676.44;;;1.99;30.50
61109;BME280;46995;55.740;37.402;2023-04-15T00:57:40;100674.72;;;1.98;30.39
61109;BME280;46995;55.740;37.402;2023-04-15T01:00:06;100684.28;;;1.97;30.51
61109;BME280;46995;55.740;37.402;2023-04-15T01:02:36;100684.28;;;1.97;30.41
61109;BME280;46995;55.740;37.402;2023-04-15T01:05:02;100690.44;;;1.95;30.82
61109;BME280;46995;55.740;37.402;2023-04-15T01:07:29;100697.34;;;1.96;30.52
61109;BME280;46995;55.740;37.402;2023-04-15T01:09:55;100695.66;;;1.95;30.49
61109;BME280;46995;55.740;37.402;2023-04-15T01:12:21;100698.25;;;1.95;30.59
61109;BME280;46995;55.740;37.402;2023-04-15T01:14:47;100694.88;;;1.93;30.88
61109;BME280;46995;55.740;37.402;2023-04-15T01:17:13;100705.31;;;1.91;30.48
61109;BME280;46995;55.740;37.402;2023-04-15T01:19:38;100701.06;;;1.89;30.88
61109;BME280;46995;55.740;37.402;2023-04-15T01:22:04;100699.44;;;1.85;30.58
61109;BME280;46995;55.740;37.402;2023-04-15T01:24:30;100703.91;;;1.81;30.87
61109;BME280;46995;55.740;37.402;2023-04-15T01:26:57;100708.38;;;1.78;30.71
61109;BME280;46995;55.740;37.402;2023-04-15T01:29:23;100711.09;;;1.73;30.51
61109;BME280;46995;55.740;37.402;2023-04-15T01:31:52;100713.78;;;1.72;30.61
61109;BME280;46995;55.740;37.402;2023-04-15T01:34:36;100718.19;;;1.68;30.74
61109;BME280;46995;55.740;37.402;2023-04-15T01:37:20;100717.44;;;1.64;30.92
61109;BME280;46995;55.740;37.402;2023-04-15T01:39:46;100720.94;;;1.63;30.82
61109;BME280;46995;55.740;37.402;2023-04-15T01:42:11;100722.66;;;1.64;30.77
61109;BME280;46995;55.740;37.402;2023-04-15T01:44:38;100731.38;;;1.63;30.90
61109;BME280;46995;55.740;37.402;2023-04-15T01:47:05;100729.66;;;1.62;31.05
61109;BME280;46995;55.740;37.402;2023-04-15T01:49:32;100734.06;;;1.60;31.08
61109;BME280;46995;55.740;37.402;2023-04-15T01:52:00;100740.19;;;1.59;31.08
61109;BME280;46995;55.740;37.402;2023-04-15T01:54:27;100732.41;;;1.58;31.18
61109;BME280;46995;55.740;37.402;2023-04-15T01:56:54;100748.03;;;1.58;31.10
61109;BME280;46995;55.740;37.402;2023-04-15T01:59:22;100740.28;;;1.56;31.11
61109;BME280;46995;55.740;37.402;2023-04-15T02:01:48;100746.41;;;1.54;31.23
61109;BME280;46995;55.740;37.402;2023-04-15T02:04:16;100747.38;;;1.51;31.25
61109;BME280;46995;55.740;37.402;2023-04-15T02:06:43;100745.66;;;1.50;31.17
61109;BME280;46995;55.740;37.402;2023-04-15T02:09:11;100742.34;;;1.45;31.01
61109;BME280;46995;55.740;37.402;2023-04-15T02:11:38;100751.06;;;1.43;31.38
61109;BME280;46995;55.740;37.402;2023-04-15T02:14:05;100762.38;;;1.42;31.11
61109;BME280;46995;55.740;37.402;2023-04-15T02:16:32;100759.03;;;1.38;31.14
61109;BME280;46995;55.740;37.402;2023-04-15T02:18:59;100766.94;;;1.35;31.16
61109;BME280;46995;55.740;37.402;2023-04-15T02:21:26;100763.50;;;1.33;31.06
61109;BME280;46995;55.740;37.402;2023-04-15T02:23:53;100772.19;;;1.32;31.24
61109;BME280;46995;55.740;37.402;2023-04-15T02:26:20;100770.56;;;1.30;31.49
61109;BME280;46995;55.740;37.402;2023-04-15T02:28:48;100780.88;;;1.33;31.35
61109;BME280;46995;55.740;37.402;2023-04-15T02:31:16;100775.63;;;1.34;31.19
61109;BME280;46995;55.740;37.402;2023-04-15T02:33:43;100777.41;;;1.32;31.28
61109;BME280;46995;55.740;37.402;2023-04-15T02:36:10;100777.41;;;1.32;31.30
61109;BME280;46995;55.740;37.402;2023-04-15T02:38:39;100778.31;;;1.31;31.61
61109;BME280;46995;55.740;37.402;2023-04-15T02:41:08;100788.72;;;1.31;31.46
61109;BME280;46995;55.740;37.402;2023-04-15T02:43:37;100793.97;;;1.30;31.26
61109;BME280;46995;55.740;37.402;2023-04-15T02:46:05;100801.81;;;1.28;31.22
61109;BME280;46995;55.740;37.402;2023-04-15T02:48:32;100796.63;;;1.28;31.32
61109;BME280;46995;55.740;37.402;2023-04-15T02:51:12;100807.03;;;1.28;31.40
61109;BME280;46995;55.740;37.402;2023-04-15T02:53:39;100814.00;;;1.26;31.17
61109;BME280;46995;55.740;37.402;2023-04-15T02:56:07;100813.09;;;1.28;31.80
61109;BME280;46995;55.740;37.402;2023-04-15T02:58:34;100807.03;;;1.28;31.43
61109;BME280;46995;55.740;37.402;2023-04-15T03:01:01;100813.03;;;1.30;31.47
61109;BME280;46995;55.740;37.402;2023-04-15T03:03:28;100820.78;;;1.32;31.72
61109;BME280;46995;55.740;37.402;2023-04-15T03:05:58;100814.66;;;1.34;31.54
61109;BME280;46995;55.740;37.402;2023-04-15T03:08:25;100824.19;;;1.35;31.48
61109;BME280;46995;55.740;37.402;2023-04-15T03:10:52;100825.88;;;1.36;31.25
61109;BME280;46995;55.740;37.402;2023-04-15T03:13:20;100821.47;;;1.38;31.52
61109;BME280;46995;55.740;37.402;2023-04-15T03:15:48;100833.50;;;1.42;31.48
61109;BME280;46995;55.740;37.402;2023-04-15T03:18:15;100825.69;;;1.42;31.55
61109;BME280;46995;55.740;37.402;2023-04-15T03:20:42;100828.31;;;1.42;31.40
61109;BME280;46995;55.740;37.402;2023-04-15T03:23:09;100842.13;;;1.44;31.53
61109;BME280;46995;55.740;37.402;2023-04-15T03:25:36;100827.34;;;1.46;31.61
61109;BME280;46995;55.740;37.402;2023-04-15T03:28:05;100829.03;;;1.47;31.60
61109;BME280;46995;55.740;37.402;2023-04-15T03:30:33;100840.28;;;1.48;31.55
61109;BME280;46995;55.740;37.402;2023-04-15T03:33:00;100832.34;;;1.52;31.53
61109;BME280;46995;55.740;37.402;2023-04-15T03:35:53;100838.38;;;1.54;31.18
61109;BME280;46995;55.740;37.402;2023-04-15T03:38:26;100835.78;;;1.54;31.38
61109;BME280;46995;55.740;37.402;2023-04-15T03:40:53;100846.09;;;1.57;31.47
61109;BME280;46995;55.740;37.402;2023-04-15T03:43:20;100842.56;;;1.60;31.36
61109;BME280;46995;55.740;37.402;2023-04-15T03:45:46;100847.63;;;1.64;31.57
61109;BME280;46995;55.740;37.402;2023-04-15T03:48:13;100853.44;;;1.74;31.40
61109;BME280;46995;55.740;37.402;2023-04-15T03:50:40;100855.09;;;1.77;31.16
61109;BME280;46995;55.740;37.402;2023-04-15T03:53:08;100848.78;;;1.84;31.49
61109;BME280;46995;55.740;37.402;2023-04-15T03:55:35;100859.19;;;1.85;31.38
61109;BME280;46995;55.740;37.402;2023-04-15T03:58:03;100855.66;;;1.88;31.43
61109;BME280;46995;55.740;37.402;2023-04-15T04:00:30;100856.44;;;1.90;31.43
61109;BME280;46995;55.740;37.402;2023-04-15T04:02:57;100866.81;;;1.91;31.50
61109;BME280;46995;55.740;37.402;2023-04-15T04:05:24;100856.41;;;1.91;31.40
61109;BME280;46995;55.740;37.402;2023-04-15T04:07:51;100850.22;;;1.94;31.46
61109;BME280;46995;55.740;37.402;2023-04-15T04:10:17;100855.22;;;2.01;31.22
61109;BME280;46995;55.740;37.402;2023-04-15T04:12:44;100852.47;;;2.06;31.31
61109;BME280;46995;55.740;37.402;2023-04-15T04:15:11;100861.00;;;2.11;31.36
61109;BME280;46995;55.740;37.402;2023-04-15T04:17:38;100867.03;;;2.13;31.21
61109;BME280;46995;55.740;37.402;2023-04-15T04:20:05;100860.81;;;2.17;31.03
61109;BME280;46995;55.740;37.402;2023-04-15T04:22:36;100859.75;;;2.24;31.19
61109;BME280;46995;55.740;37.402;2023-04-15T04:25:03;100866.38;;;2.34;31.32
61109;BME280;46995;55.740;37.402;2023-04-15T04:27:33;100867.88;;;2.41;30.97
61109;BME280;46995;55.740;37.402;2023-04-15T04:30:00;100872.03;;;2.47;31.01
61109;BME280;46995;55.740;37.402;2023-04-15T04:32:27;100875.34;;;2.52;31.10
61109;BME280;46995;55.740;37.402;2023-04-15T04:34:54;100867.31;;;2.60;31.17
61109;BME280;46995;55.740;37.402;2023-04-15T04:37:21;100879.16;;;2.70;31.09
61109;BME280;46995;55.740;37.402;2023-04-15T04:39:49;100866.66;;;2.79;31.09
61109;BME280;46995;55.740;37.402;2023-04-15T04:42:16;100866.56;;;2.82;31.00
61109;BME280;46995;55.740;37.402;2023-04-15T04:44:42;100870.00;;;2.83;30.65
61109;BME280;46995;55.740;37.402;2023-04-15T04:47:09;100870.78;;;2.86;30.93
61109;BME280;46995;55.740;37.402;2023-04-15T04:49:36;100869.81;;;2.89;31.12
61109;BME280;46995;55.740;37.402;2023-04-15T04:52:09;100875.13;;;2.86;31.13
61109;BME280;46995;55.740;37.402;2023-04-15T04:54:37;100873.69;;;2.77;31.25
61109;BME280;46995;55.740;37.402;2023-04-15T04:57:03;100871.22;;;2.73;30.93
61109;BME280;46995;55.740;37.402;2023-04-15T04:59:31;100877.25;;;2.75;31.21
61109;BME280;46995;55.740;37.402;2023-04-15T05:01:58;100879.03;;;2.73;31.17
61109;BME280;46995;55.740;37.402;2023-04-15T05:04:25;100875.66;;;2.71;31.41
61109;BME280;46995;55.740;37.402;2023-04-15T05:06:52;100876.59;;;2.68;30.93
61109;BME280;46995;55.740;37.402;2023-04-15T05:09:19;100874.81;;;2.69;30.97
61109;BME280;46995;55.740;37.402;2023-04-15T05:11:46;100879.16;;;2.70;30.82
61109;BME280;46995;55.740;37.402;2023-04-15T05:14:13;100886.06;;;2.71;31.29
61109;BME280;46995;55.740;37.402;2023-04-15T05:16:40;100877.25;;;2.75;31.04
61109;BME280;46995;55.740;37.402;2023-04-15T05:19:07;100878.75;;;2.82;30.82
61109;BME280;46995;55.740;37.402;2023-04-15T05:21:34;100888.16;;;2.87;30.72
61109;BME280;46995;55.740;37.402;2023-04-15T05:24:01;100887.00;;;2.94;30.98
61109;BME280;46995;55.740;37.402;2023-04-15T05:26:30;100883.31;;;3.02;30.96
61109;BME280;46995;55.740;37.402;2023-04-15T05:28:57;100886.66;;;3.05;31.10
61109;BME280;46995;55.740;37.402;2023-04-15T05:31:24;100877.00;;;3.09;30.48
61109;BME280;46995;55.740;37.402;2023-04-15T05:33:51;100888.16;;;3.12;30.57
61109;BME280;46995;55.740;37.402;2023-04-15T05:36:18;100889.59;;;3.21;30.47
61109;BME280;46995;55.740;37.402;2023-04-15T05:38:51;100885.59;;;3.35;30.49
61109;BME280;46995;55.740;37.402;2023-04-15T05:42:01;100893.81;;;3.50;30.37
61109;BME280;46995;55.740;37.402;2023-04-15T05:44:40;100893.66;;;3.54;30.25
61109;BME280;46995;55.740;37.402;2023-04-15T05:47:37;100896.91;;;3.61;30.15
61109;BME280;46995;55.740;37.402;2023-04-15T05:50:04;100891.56;;;3.64;30.65
61109;BME280;46995;55.740;37.402;2023-04-15T05:52:30;100897.53;;;3.67;30.20
61109;BME280;46995;55.740;37.402;2023-04-15T05:54:57;100897.34;;;3.72;30.41
61109;BME280;46995;55.740;37.402;2023-04-15T05:57:24;100897.03;;;3.81;30.41
61109;BME280;46995;55.740;37.402;2023-04-15T05:59:52;100903.84;;;3.85;30.63
61109;BME280;46995;55.740;37.402;2023-04-15T06:02:18;100903.81;;;3.87;30.12
61109;BME280;46995;55.740;37.402;2023-04-15T06:04:45;100897.38;;;3.95;30.20
61109;BME280;46995;55.740;37.402;2023-04-15T06:07:12;100905.91;;;4.00;30.02
61109;BME280;46995;55.740;37.402;2023-04-15T06:09:39;100906.72;;;4.02;29.85
61109;BME280;46995;55.740;37.402;2023-04-15T06:12:06;100903.84;;;4.08;29.97
61109;BME280;46995;55.740;37.402;2023-04-15T06:14:37;100908.97;;;4.11;30.04
61109;BME280;46995;55.740;37.402;2023-04-15T06:17:05;100909.81;;;4.12;29.84
61109;BME280;46995;55.740;37.402;2023-04-15T06:19:32;100906.91;;;4.19;29.70
61109;BME280;46995;55.740;37.402;2023-04-15T06:22:01;100909.97;;;4.31;29.79
61109;BME280;46995;55.740;37.402;2023-04-15T06:24:28;100906.31;;;4.35;29.73
61109;BME280;46995;55.740;37.402;2023-04-15T06:26:55;100908.09;;;4.34;30.09
61109;BME280;46995;55.740;37.402;2023-04-15T06:29:23;100902.69;;;4.39;29.69
61109;BME280;46995;55.740;37.402;2023-04-15T06:31:49;100914.59;;;4.46;30.18
61109;BME280;46995;55.740;37.402;2023-04-15T06:34:16;100907.44;;;4.51;29.52
61109;BME280;46995;55.740;37.402;2023-04-15T06:36:43;100913.47;;;4.53;30.12
61109;BME280;46995;55.740;37.402;2023-04-15T06:39:10;100911.69;;;4.53;30.10
61109;BME280;46995;55.740;37.402;2023-04-15T06:41:37;100912.19;;;4.63;29.75
61109;BME280;46995;55.740;37.402;2023-04-15T06:44:04;100913.53;;;4.73;29.47
61109;BME280;46995;55.740;37.402;2023-04-15T06:46:31;100918.31;;;4.84;29.45
61109;BME280;46995;55.740;37.402;2023-04-15T06:48:59;100905.00;;;4.90;29.80
61109;BME280;46995;55.740;37.402;2023-04-15T06:51:26;100926.66;;;4.93;29.73
61109;BME280;46995;55.740;37.402;2023-04-15T06:53:54;100921.41;;;4.93;29.96
61109;BME280;46995;55.740;37.402;2023-04-15T06:56:21;100922.59;;;4.86;29.75
61109;BME280;46995;55.740;37.402;2023-04-15T06:58:48;100921.75;;;4.86;29.33
61109;BME280;46995;55.740;37.402;2023-04-15T07:01:18;100927.94;;;4.83;29.67
61109;BME280;46995;55.740;37.402;2023-04-15T07:03:45;100923.63;;;4.82;29.27
61109;BME280;46995;55.740;37.402;2023-04-15T07:06:12;100926.13;;;4.85;29.24
61109;BME280;46995;55.740;37.402;2023-04-15T07:08:39;100919.72;;;4.92;29.45
61109;BME280;46995;55.740;37.402;2023-04-15T07:11:06;100921.31;;;4.96;29.47
61109;BME280;46995;55.740;37.402;2023-04-15T07:13:32;100921.97;;;5.01;29.11
61109;BME280;46995;55.740;37.402;2023-04-15T07:15:59;100917.41;;;5.06;28.58
61109;BME280;46995;55.740;37.402;2023-04-15T07:18:29;100918.81;;;5.13;28.60
61109;BME280;46995;55.740;37.402;2023-04-15T07:20:56;100915.91;;;5.21;29.10
61109;BME280;46995;55.740;37.402;2023-04-15T07:23:23;100919.88;;;5.30;28.82
61109;BME280;46995;55.740;37.402;2023-04-15T07:25:53;100922.41;;;5.33;29.02
61109;BME280;46995;55.740;37.402;2023-04-15T07:28:23;100925.69;;;5.38;28.74
61109;BME280;46995;55.740;37.402;2023-04-15T07:30:49;100923.72;;;5.43;29.39
61109;BME280;46995;55.740;37.402;2023-04-15T07:33:17;100917.69;;;5.41;29.00
61109;BME280;46995;55.740;37.402;2023-04-15T07:35:43;100922.00;;;5.42;28.82
61109;BME280;46995;55.740;37.402;2023-04-15T07:38:16;100923.91;;;5.38;28.81
61109;BME280;46995;55.740;37.402;2023-04-15T07:40:46;100911.47;;;5.43;28.11
61109;BME280;46995;55.740;37.402;2023-04-15T07:43:15;100920.44;;;5.58;28.86
61109;BME280;46995;55.740;37.402;2023-04-15T07:45:42;100920.94;;;5.66;28.69
61109;BME280;46995;55.740;37.402;2023-04-15T07:48:09;100925.84;;;5.74;28.86
61109;BME280;46995;55.740;37.402;2023-04-15T07:50:36;100917.78;;;5.78;28.23
61109;BME280;46995;55.740;37.402;2023-04-15T07:53:03;100918.59;;;5.80;28.40
61109;BME280;46995;55.740;37.402;2023-04-15T07:55:31;100914.03;;;5.84;28.37
61109;BME280;46995;55.740;37.402;2023-04-15T07:57:58;100923.28;;;5.92;28.38
61109;BME280;46995;55.740;37.402;2023-04-15T08:00:25;100911.78;;;5.97;28.22
61109;BME280;46995;55.740;37.402;2023-04-15T08:02:52;100919.47;;;6.00;28.57
61109;BME280;46995;55.740;37.402;2023-04-15T08:05:19;100917.50;;;6.05;28.28
61109;BME280;46995;55.740;37.402;2023-04-15T08:07:46;100917.16;;;6.12;27.84
61109;BME280;46995;55.740;37.402;2023-04-15T08:10:14;100917.88;;;6.16;27.97
61109;BME280;46995;55.740;37.402;2023-04-15T08:12:41;100909.56;;;6.25;27.70
61109;BME280;46995;55.740;37.402;2023-04-15T08:15:08;100912.31;;;6.41;27.55
61109;BME280;46995;55.740;37.402;2023-04-15T08:17:38;100900.13;;;6.58;27.98
61109;BME280;46995;55.740;37.402;2023-04-15T08:20:05;100908.97;;;6.74;27.05
61109;BME280;46995;55.740;37.402;2023-04-15T08:22:32;100904.03;;;6.86;27.45
61109;BME280;46995;55.740;37.402;2023-04-15T08:24:59;100904.69;;;6.91;27.63
61109;BME280;46995;55.740;37.402;2023-04-15T08:27:27;100908.69;;;6.98;27.89
61109;BME280;46995;55.740;37.402;2023-04-15T08:29:53;100907.59;;;7.02;27.28
61109;BME280;46995;55.740;37.402;2023-04-15T08:32:23;100906.44;;;7.07;27.31
61109;BME280;46995;55.740;37.402;2023-04-15T08:34:52;100902.97;;;7.07;27.31
61109;BME280;46995;55.740;37.402;2023-04-15T08:37:19;100902.84;;;7.10;27.28
61109;BME280;46995;55.740;37.402;2023-04-15T08:39:46;100899.28;;;7.11;27.44
61109;BME280;46995;55.740;37.402;2023-04-15T08:42:16;100899.97;;;7.14;27.36
61109;BME280;46995;55.740;37.402;2023-04-15T08:44:46;100902.38;;;7.19;27.43
61109;BME280;46995;55.740;37.402;2023-04-15T08:47:16;100904.84;;;7.22;27.40
61109;BME280;46995;55.740;37.402;2023-04-15T08:49:52;100897.50;;;7.29;26.77
61109;BME280;46995;55.740;37.402;2023-04-15T08:52:24;100890.22;;;7.34;26.00
61109;BME280;46995;55.740;37.402;2023-04-15T08:54:53;100894.94;;;7.44;26.22
61109;BME280;46995;55.740;37.402;2023-04-15T08:57:27;100895.22;;;7.55;27.13
61109;BME280;46995;55.740;37.402;2023-04-15T08:59:57;100884.72;;;7.55;26.78
61109;BME280;46995;55.740;37.402;2023-04-15T09:02:24;100884.41;;;7.61;26.17
61109;BME280;46995;55.740;37.402;2023-04-15T09:04:52;100884.84;;;7.70;26.23
61109;BME280;46995;55.740;37.402;2023-04-15T09:07:19;100880.72;;;7.81;26.07
61109;BME280;46995;55.740;37.402;2023-04-15T09:09:47;100879.53;;;7.87;25.96
61109;BME280;46995;55.740;37.402;2023-04-15T09:12:14;100883.63;;;7.92;26.60
61109;BME280;46995;55.740;37.402;2023-04-15T09:14:44;100884.66;;;7.90;26.32
61109;BME280;46995;55.740;37.402;2023-04-15T09:17:10;100878.28;;;7.94;26.49
61109;BME280;46995;55.740;37.402;2023-04-15T09:19:37;100884.91;;;8.01;26.36
61109;BME280;46995;55.740;37.402;2023-04-15T09:22:04;100885.28;;;8.11;26.01
61109;BME280;46995;55.740;37.402;2023-04-15T09:24:35;100870.25;;;8.28;25.48
61109;BME280;46995;55.740;37.402;2023-04-15T09:27:06;100874.69;;;8.43;25.38
61109;BME280;46995;55.740;37.402;2023-04-15T09:29:33;100887.19;;;8.56;25.93
61109;BME280;46995;55.740;37.402;2023-04-15T09:32:10;100877.41;;;8.58;25.75
61109;BME280;46995;55.740;37.402;2023-04-15T09:34:37;100872.75;;;8.63;25.91
61109;BME280;46995;55.740;37.402;2023-04-15T09:37:04;100872.47;;;8.67;25.30
61109;BME280;46995;55.740;37.402;2023-04-15T09:39:52;100873.91;;;8.73;25.84
61109;BME280;46995;55.740;37.402;2023-04-15T09:42:19;100879.50;;;8.82;25.72
61109;BME280;46995;55.740;37.402;2023-04-15T09:44:52;100880.75;;;8.91;24.98
61109;BME280;46995;55.740;37.402;2023-04-15T09:47:27;100870.44;;;9.02;24.97
61109;BME280;46995;55.740;37.402;2023-04-15T09:49:55;100877.78;;;9.11;24.65
61109;BME280;46995;55.740;37.402;2023-04-15T09:52:22;100879.22;;;9.17;24.88
61109;BME280;46995;55.740;37.402;2023-04-15T09:54:50;100883.88;;;9.27;25.45
61109;BME280;46995;55.740;37.402;2023-04-15T09:57:18;100877.38;;;9.33;25.14
61109;BME280;46995;55.740;37.402;2023-04-15T09:59:45;100879.75;;;9.38;25.06
61109;BME280;46995;55.740;37.402;2023-04-15T10:02:12;100883.16;;;9.40;25.79
61109;BME280;46995;55.740;37.402;2023-04-15T10:04:39;100877.22;;;9.36;25.46
61109;BME280;46995;55.740;37.402;2023-04-15T10:07:10;100874.47;;;9.38;25.67
61109;BME280;46995;55.740;37.402;2023-04-15T10:09:37;100882.94;;;9.43;25.76
61109;BME280;46995;55.740;37.402;2023-04-15T10:12:04;100879.59;;;9.55;25.29
61109;BME280;46995;55.740;37.402;2023-04-15T10:14:34;100869.25;;;9.66;25.45
61109;BME280;46995;55.740;37.402;2023-04-15T10:17:04;100876.97;;;9.83;23.87
61109;BME280;46995;55.740;37.402;2023-04-15T10:23:21;100873.97;;;10.03;24.00
61109;BME280;46995;55.740;37.402;2023-04-15T10:25:49;100855.66;;;10.14;24.52
61109;BME280;46995;55.740;37.402;2023-04-15T10:28:21;100863.38;;;10.32;24.30
61109;BME280;46995;55.740;37.402;2023-04-15T10:30:56;100858.41;;;10.54;24.53
61109;BME280;46995;55.740;37.402;2023-04-15T10:33:28;100855.28;;;10.61;24.12
61109;BME280;46995;55.740;37.402;2023-04-15T10:35:59;100862.69;;;10.69;24.08
61109;BME280;46995;55.740;37.402;2023-04-15T10:43:52;100849.78;;;10.65;23.35
61109;BME280;46995;55.740;37.402;2023-04-15T10:46:21;100854.16;;;10.78;24.43
61109;BME280;46995;55.740;37.402;2023-04-15T10:48:52;100861.69;;;10.84;24.27
61109;BME280;46995;55.740;37.402;2023-04-15T10:51:29;100860.75;;;10.85;24.29
61109;BME280;46995;55.740;37.402;2023-04-15T10:53:57;100857.91;;;10.88;24.10
61109;BME280;46995;55.740;37.402;2023-04-15T10:56:27;100856.75;;;10.92;24.16
61109;BME280;46995;55.740;37.402;2023-04-15T10:58:54;100854.66;;;10.97;23.67
61109;BME280;46995;55.740;37.402;2023-04-15T11:01:21;100862.91;;;11.05;23.59
61109;BME280;46995;55.740;37.402;2023-04-15T11:03:50;100858.91;;;11.13;24.53
61109;BME280;46995;55.740;37.402;2023-04-15T11:06:17;100857.97;;;11.14;23.19
61109;BME280;46995;55.740;37.402;2023-04-15T11:08:57;100856.72;;;11.19;24.14
61109;BME280;46995;55.740;37.402;2023-04-15T11:14:16;100858.56;;;11.04;23.86
61109;BME280;46995;55.740;37.402;2023-04-15T11:16:42;100845.56;;;11.01;22.60
61109;BME280;46995;55.740;37.402;2023-04-15T11:19:12;100850.75;;;11.03;23.15
61109;BME280;46995;55.740;37.402;2023-04-15T11:21:39;100845.69;;;11.13;23.66
61109;BME280;46995;55.740;37.402;2023-04-15T11:24:06;100858.59;;;11.17;23.64
61109;BME280;46995;55.740;37.402;2023-04-15T11:26:33;100849.09;;;11.15;24.06
61109;BME280;46995;55.740;37.402;2023-04-15T11:29:00;100848.88;;;11.18;23.44
61109;BME280;46995;55.740;37.402;2023-04-15T11:31:27;100840.63;;;11.22;22.38
61109;BME280;46995;55.740;37.402;2023-04-15T11:33:58;100845.94;;;11.35;23.46
61109;BME280;46995;55.740;37.402;2023-04-15T11:36:26;100842.84;;;11.41;22.76
61109;BME280;46995;55.740;37.402;2023-04-15T11:38:53;100837.38;;;11.44;22.79
61109;BME280;46995;55.740;37.402;2023-04-15T11:41:20;100828.06;;;11.51;22.01
61109;BME280;46995;55.740;37.402;2023-04-15T11:43:48;100834.31;;;11.50;23.63
61109;BME280;46995;55.740;37.402;2023-04-15T11:46:15;100835.75;;;11.41;22.55
61109;BME280;46995;55.740;37.402;2023-04-15T11:48:43;100835.47;;;11.46;23.44
61109;BME280;46995;55.740;37.402;2023-04-15T11:51:10;100829.72;;;11.52;23.42
61109;BME280;46995;55.740;37.402;2023-04-15T11:53:43;100831.34;;;11.55;23.69
61109;BME280;46995;55.740;37.402;2023-04-15T11:56:19;100820.84;;;11.53;23.26
61109;BME280;46995;55.740;37.402;2023-04-15T11:58:50;100815.38;;;11.56;22.46
61109;BME280;46995;55.740;37.402;2023-04-15T12:01:17;100809.31;;;11.67;22.83
61109;BME280;46995;55.740;37.402;2023-04-15T12:03:46;100813.75;;;11.79;22.71
61109;BME280;46995;55.740;37.402;2023-04-15T12:06:13;100818.72;;;11.83;23.21
61109;BME280;46995;55.740;37.402;2023-04-15T12:14:06;100807.00;;;12.24;21.95
61109;BME280;46995;55.740;37.402;2023-04-15T12:16:33;100804.44;;;12.70;22.38
61109;BME280;46995;55.740;37.402;2023-04-15T12:19:02;100801.47;;;13.21;22.03
61109;BME280;46995;55.740;37.402;2023-04-15T12:21:33;100798.63;;;13.79;21.59
61109;BME280;46995;55.740;37.402;2023-04-15T12:24:00;100802.03;;;14.35;20.95
61109;BME280;46995;55.740;37.402;2023-04-15T12:28:53;100791.34;;;15.31;20.34
61109;BME280;46995;55.740;37.402;2023-04-15T12:31:19;100800.84;;;15.75;20.77
61109;BME280;46995;55.740;37.402;2023-04-15T12:33:47;100797.44;;;16.03;19.92
61109;BME280;46995;55.740;37.402;2023-04-15T12:36:12;100796.25;;;16.27;20.16
61109;BME280;46995;55.740;37.402;2023-04-15T12:38:38;100794.56;;;16.45;19.84
61109;BME280;46995;55.740;37.402;2023-04-15T12:41:03;100797.00;;;16.67;19.41
61109;BME280;46995;55.740;37.402;2023-04-15T12:43:29;100797.41;;;16.82;19.48
61109;BME280;46995;55.740;37.402;2023-04-15T12:45:54;100798.25;;;16.82;19.92
61109;BME280;46995;55.740;37.402;2023-04-15T12:48:20;100793.72;;;16.54;19.96
61109;BME280;46995;55.740;37.402;2023-04-15T12:50:46;100794.97;;;16.31;20.91
61109;BME280;46995;55.740;37.402;2023-04-15T12:53:11;100793.34;;;15.99;20.92
61109;BME280;46995;55.740;37.402;2023-04-15T12:55:37;100781.72;;;15.60;20.97
61109;BME280;46995;55.740;37.402;2023-04-15T12:58:02;100787.63;;;15.43;21.11
61109;BME280;46995;55.740;37.402;2023-04-15T13:00:28;100793.81;;;15.23;20.81
61109;BME280;46995;55.740;37.402;2023-04-15T13:02:56;100803.41;;;14.94;21.53
61109;BME280;46995;55.740;37.402;2023-04-15T13:05:22;100798.34;;;14.70;21.31
61109;BME280;46995;55.740;37.402;2023-04-15T13:07:47;100795.13;;;14.55;21.93
61109;BME280;46995;55.740;37.402;2023-04-15T13:10:13;100798.69;;;14.33;21.88
61109;BME280;46995;55.740;37.402;2023-04-15T13:12:38;100800.16;;;14.15;21.71
61109;BME280;46995;55.740;37.402;2023-04-15T13:15:06;100801.41;;;14.00;21.54